sensor_id;sensor_type;location;lat;lon;timestamp;temperature;humidity
4050;DHT22;2039;50.894;6.888;2023-03-14T00:00:01;11.60;99.90
4050;DHT22;2039;50.894;6.888;2023-03-14T00:03:15;11.60;99.90
4050;DHT22;2039;50.894;6.888;2023-03-14T00:06:14;11.50;99.90
4050;DHT22;2039;50.894;6.888;2023-03-14T00:09:02;11.50;99.90
4050;DHT22;2039;50.894;6.888;2023-03-14T00:12:08;11.50;99.90
4050;DHT22;2039;50.894;6.888;2023-03-14T00:14:46;11.50;99.90
4050;DHT22;2039;50.894;6.888;2023-03-14T00:17:30;11.50;99.90
4050;DHT22;2039;50.894;6.888;2023-03-14T00:20:19;11.50;99.90
4050;DHT22;2039;50.894;6.888;2023-03-14T00:22:59;11.50;99.90
4050;DHT22;2039;50.894;6.888;2023-03-14T00:25:34;11.40;99.90
4050;DHT22;2039;50.894;6.888;2023-03-14T00:31:26;11.50;99.90
4050;DHT22;2039;50.894;6.888;2023-03-14T00:33:58;11.60;99.80
4050;DHT22;2039;50.894;6.888;2023-03-14T00:36:32;11.60;99.60
4050;DHT22;2039;50.894;6.888;2023-03-14T00:39:07;11.60;99.90
4050;DHT22;2039;50.894;6.888;2023-03-14T00:41:41;11.60;98.70
4050;DHT22;2039;50.894;6.888;2023-03-14T00:44:43;11.60;99.90
4050;DHT22;2039;50.894;6.888;2023-03-14T00:47:26;11.70;98.90
4050;DHT22;2039;50.894;6.888;2023-03-14T00:50:13;11.70;95.50
4050;DHT22;2039;50.894;6.888;2023-03-14T00:52:50;11.70;96.30
4050;DHT22;2039;50.894;6.888;2023-03-14T00:56:05;11.70;96.70
4050;DHT22;2039;50.894;6.888;2023-03-14T00:58:40;11.70;97.50
4050;DHT22;2039;50.894;6.888;2023-03-14T01:01:26;11.70;97.00
4050;DHT22;2039;50.894;6.888;2023-03-14T01:04:04;11.70;97.90
4050;DHT22;2039;50.894;6.888;2023-03-14T01:06:40;11.70;99.20
4050;DHT22;2039;50.894;6.888;2023-03-14T01:09:45;11.70;99.40
4050;DHT22;2039;50.894;6.888;2023-03-14T01:12:13;11.70;99.90
4050;DHT22;2039;50.894;6.888;2023-03-14T01:14:52;11.70;99.90
4050;DHT22;2039;50.894;6.888;2023-03-14T01:17:20;11.70;99.90
4050;DHT22;2039;50.894;6.888;2023-03-14T01:19:46;11.70;99.90
4050;DHT22;2039;50.894;6.888;2023-03-14T01:22:11;11.70;99.90
4050;DHT22;2039;50.894;6.888;2023-03-14T01:24:37;11.70;99.90
4050;DHT22;2039;50.894;6.888;2023-03-14T01:27:03;11.60;99.90
4050;DHT22;2039;50.894;6.888;2023-03-14T01:29:34;11.50;99.90
4050;DHT22;2039;50.894;6.888;2023-03-14T01:32:11;11.40;99.90
4050;DHT22;2039;50.894;6.888;2023-03-14T01:34:42;11.30;99.90
4050;DHT22;2039;50.894;6.888;2023-03-14T01:37:15;11.20;99.90
4050;DHT22;2039;50.894;6.888;2023-03-14T01:40:05;11.00;99.90
4050;DHT22;2039;50.894;6.888;2023-03-14T01:42:52;10.80;99.90
4050;DHT22;2039;50.894;6.888;2023-03-14T01:48:40;10.60;99.90
4050;DHT22;2039;50.894;6.888;2023-03-14T01:51:33;10.70;99.90
4050;DHT22;2039;50.894;6.888;2023-03-14T01:54:31;10.50;99.90
4050;DHT22;2039;50.894;6.888;2023-03-14T02:00:57;10.40;99.90
4050;DHT22;2039;50.894;6.888;2023-03-14T02:37:13;9.60;99.90
4050;DHT22;2039;50.894;6.888;2023-03-14T02:40:37;9.60;99.90
4050;DHT22;2039;50.894;6.888;2023-03-14T02:43:45;9.60;99.90
4050;DHT22;2039;50.894;6.888;2023-03-14T02:57:10;9.60;99.90
4050;DHT22;2039;50.894;6.888;2023-03-14T03:04:10;9.60;99.90
4050;DHT22;2039;50.894;6.888;2023-03-14T03:10:41;9.70;99.90
4050;DHT22;2039;50.894;6.888;2023-03-14T03:17:48;9.80;99.90
4050;DHT22;2039;50.894;6.888;2023-03-14T03:34:30;10.00;99.90
4050;DHT22;2039;50.894;6.888;2023-03-14T03:40:22;10.10;99.90
4050;DHT22;2039;50.894;6.888;2023-03-14T03:46:02;10.10;99.90
4050;DHT22;2039;50.894;6.888;2023-03-14T03:49:03;10.10;99.90
4050;DHT22;2039;50.894;6.888;2023-03-14T03:52:16;10.10;99.90
4050;DHT22;2039;50.894;6.888;2023-03-14T03:55:17;10.10;99.90
4050;DHT22;2039;50.894;6.888;2023-03-14T03:58:24;10.30;99.90
4050;DHT22;2039;50.894;6.888;2023-03-14T04:01:05;10.20;99.90
4050;DHT22;2039;50.894;6.888;2023-03-14T04:04:08;10.20;99.90
4050;DHT22;2039;50.894;6.888;2023-03-14T04:09:37;10.30;99.90
4050;DHT22;2039;50.894;6.888;2023-03-14T04:12:21;10.30;99.90
4050;DHT22;2039;50.894;6.888;2023-03-14T04:15:00;10.30;99.90
4050;DHT22;2039;50.894;6.888;2023-03-14T04:17:45;10.30;99.90
4050;DHT22;2039;50.894;6.888;2023-03-14T04:20:14;10.20;99.90
4050;DHT22;2039;50.894;6.888;2023-03-14T04:22:48;10.20;99.90
4050;DHT22;2039;50.894;6.888;2023-03-14T04:25:14;10.20;99.90
4050;DHT22;2039;50.894;6.888;2023-03-14T04:27:41;10.20;99.90
4050;DHT22;2039;50.894;6.888;2023-03-14T04:30:08;10.20;99.90
4050;DHT22;2039;50.894;6.888;2023-03-14T04:32:34;10.10;99.90
4050;DHT22;2039;50.894;6.888;2023-03-14T04:35:11;10.20;99.90
4050;DHT22;2039;50.894;6.888;2023-03-14T04:38:02;10.10;99.90
4050;DHT22;2039;50.894;6.888;2023-03-14T04:40:46;10.10;99.90
4050;DHT22;2039;50.894;6.888;2023-03-14T04:43:18;10.10;99.90
4050;DHT22;2039;50.894;6.888;2023-03-14T04:45:44;10.10;99.90
4050;DHT22;2039;50.894;6.888;2023-03-14T04:48:10;10.00;99.90
4050;DHT22;2039;50.894;6.888;2023-03-14T04:50:36;10.00;99.90
4050;DHT22;2039;50.894;6.888;2023-03-14T04:53:01;10.00;99.90
4050;DHT22;2039;50.894;6.888;2023-03-14T04:55:27;10.10;99.90
4050;DHT22;2039;50.894;6.888;2023-03-14T04:58:13;10.00;99.90
4050;DHT22;2039;50.894;6.888;2023-03-14T05:01:01;9.90;99.90
4050;DHT22;2039;50.894;6.888;2023-03-14T05:03:52;9.90;99.90
4050;DHT22;2039;50.894;6.888;2023-03-14T05:06:27;9.90;99.90
4050;DHT22;2039;50.894;6.888;2023-03-14T05:09:41;10.00;99.90
4050;DHT22;2039;50.894;6.888;2023-03-14T05:12:21;10.00;99.90
4050;DHT22;2039;50.894;6.888;2023-03-14T05:14:47;10.00;99.90
4050;DHT22;2039;50.894;6.888;2023-03-14T05:17:15;10.00;99.90
4050;DHT22;2039;50.894;6.888;2023-03-14T05:19:47;9.90;99.90
4050;DHT22;2039;50.894;6.888;2023-03-14T05:22:16;9.90;99.90
4050;DHT22;2039;50.894;6.888;2023-03-14T05:24:49;9.90;99.90
4050;DHT22;2039;50.894;6.888;2023-03-14T05:27:23;9.90;99.90
4050;DHT22;2039;50.894;6.888;2023-03-14T05:29:57;9.90;99.90
4050;DHT22;2039;50.894;6.888;2023-03-14T05:32:29;9.90;99.90
4050;DHT22;2039;50.894;6.888;2023-03-14T05:35:02;9.90;99.90
4050;DHT22;2039;50.894;6.888;2023-03-14T05:37:34;9.90;99.90
4050;DHT22;2039;50.894;6.888;2023-03-14T05:40:05;9.90;99.90
4050;DHT22;2039;50.894;6.888;2023-03-14T05:42:37;9.90;99.90
4050;DHT22;2039;50.894;6.888;2023-03-14T05:45:08;10.00;99.90
4050;DHT22;2039;50.894;6.888;2023-03-14T05:47:37;9.90;99.90
4050;DHT22;2039;50.894;6.888;2023-03-14T05:50:09;9.90;99.90
4050;DHT22;2039;50.894;6.888;2023-03-14T05:52:35;9.90;1.00
4050;DHT22;2039;50.894;6.888;2023-03-14T05:55:02;9.90;1.00
4050;DHT22;2039;50.894;6.888;2023-03-14T05:57:33;10.00;1.00
4050;DHT22;2039;50.894;6.888;2023-03-14T06:00:01;9.90;1.00
4050;DHT22;2039;50.894;6.888;2023-03-14T06:02:27;9.90;10.30
4050;DHT22;2039;50.894;6.888;2023-03-14T06:04:55;9.90;99.90
4050;DHT22;2039;50.894;6.888;2023-03-14T06:07:24;9.90;99.90
4050;DHT22;2039;50.894;6.888;2023-03-14T06:09:50;9.80;99.90
4050;DHT22;2039;50.894;6.888;2023-03-14T06:12:31;9.90;99.90
4050;DHT22;2039;50.894;6.888;2023-03-14T06:15:06;9.80;99.90
4050;DHT22;2039;50.894;6.888;2023-03-14T06:17:37;9.90;99.90
4050;DHT22;2039;50.894;6.888;2023-03-14T06:20:03;9.80;99.90
4050;DHT22;2039;50.894;6.888;2023-03-14T06:22:32;9.80;99.90
4050;DHT22;2039;50.894;6.888;2023-03-14T06:25:09;9.80;99.90
4050;DHT22;2039;50.894;6.888;2023-03-14T06:28:15;9.90;99.90
4050;DHT22;2039;50.894;6.888;2023-03-14T06:30:50;9.90;99.90
4050;DHT22;2039;50.894;6.888;2023-03-14T06:33:21;10.00;99.90
4050;DHT22;2039;50.894;6.888;2023-03-14T06:35:49;10.00;99.90
4050;DHT22;2039;50.894;6.888;2023-03-14T06:38:15;10.00;99.90
4050;DHT22;2039;50.894;6.888;2023-03-14T06:40:43;10.10;99.90
4050;DHT22;2039;50.894;6.888;2023-03-14T06:43:11;10.10;99.90
4050;DHT22;2039;50.894;6.888;2023-03-14T06:45:39;10.20;31.10
4050;DHT22;2039;50.894;6.888;2023-03-14T06:48:05;10.20;1.00
4050;DHT22;2039;50.894;6.888;2023-03-14T06:50:30;10.30;1.00
4050;DHT22;2039;50.894;6.888;2023-03-14T06:53:23;10.40;1.00
4050;DHT22;2039;50.894;6.888;2023-03-14T06:55:49;10.40;99.90
4050;DHT22;2039;50.894;6.888;2023-03-14T06:58:17;10.40;99.90
4050;DHT22;2039;50.894;6.888;2023-03-14T07:00:43;10.60;99.90
4050;DHT22;2039;50.894;6.888;2023-03-14T07:03:13;10.60;1.00
4050;DHT22;2039;50.894;6.888;2023-03-14T07:05:42;10.60;45.90
4050;DHT22;2039;50.894;6.888;2023-03-14T07:08:10;10.70;1.00
4050;DHT22;2039;50.894;6.888;2023-03-14T07:10:36;10.70;1.00
4050;DHT22;2039;50.894;6.888;2023-03-14T07:13:02;10.70;99.90
4050;DHT22;2039;50.894;6.888;2023-03-14T07:15:28;10.80;99.90
4050;DHT22;2039;50.894;6.888;2023-03-14T07:17:53;10.90;99.90
4050;DHT22;2039;50.894;6.888;2023-03-14T07:20:19;10.90;57.30
4050;DHT22;2039;50.894;6.888;2023-03-14T07:22:54;10.90;80.40
4050;DHT22;2039;50.894;6.888;2023-03-14T07:25:23;10.90;1.00
4050;DHT22;2039;50.894;6.888;2023-03-14T07:27:52;10.90;1.00
4050;DHT22;2039;50.894;6.888;2023-03-14T07:30:17;10.90;1.00
4050;DHT22;2039;50.894;6.888;2023-03-14T07:32:43;11.00;99.90
4050;DHT22;2039;50.894;6.888;2023-03-14T07:35:09;11.00;1.00
4050;DHT22;2039;50.894;6.888;2023-03-14T07:37:35;11.00;1.00
4050;DHT22;2039;50.894;6.888;2023-03-14T07:40:01;11.20;1.00
4050;DHT22;2039;50.894;6.888;2023-03-14T07:42:26;11.30;1.00
4050;DHT22;2039;50.894;6.888;2023-03-14T07:45:00;11.30;99.90
4050;DHT22;2039;50.894;6.888;2023-03-14T07:47:35;11.40;99.90
4050;DHT22;2039;50.894;6.888;2023-03-14T07:50:04;11.50;45.30
4050;DHT22;2039;50.894;6.888;2023-03-14T07:52:36;11.70;99.90
4050;DHT22;2039;50.894;6.888;2023-03-14T07:55:07;11.80;99.90
4050;DHT22;2039;50.894;6.888;2023-03-14T07:57:33;12.00;99.90
4050;DHT22;2039;50.894;6.888;2023-03-14T08:00:01;12.00;99.90
4050;DHT22;2039;50.894;6.888;2023-03-14T08:02:28;12.10;56.70
4050;DHT22;2039;50.894;6.888;2023-03-14T08:04:59;12.00;1.00
4050;DHT22;2039;50.894;6.888;2023-03-14T08:07:33;12.10;1.00
4050;DHT22;2039;50.894;6.888;2023-03-14T08:09:59;12.00;1.00
4050;DHT22;2039;50.894;6.888;2023-03-14T08:12:30;11.90;1.00
4050;DHT22;2039;50.894;6.888;2023-03-14T08:15:06;11.90;1.00
4050;DHT22;2039;50.894;6.888;2023-03-14T08:17:35;11.80;1.00
4050;DHT22;2039;50.894;6.888;2023-03-14T08:20:01;11.90;1.00
4050;DHT22;2039;50.894;6.888;2023-03-14T08:22:28;11.90;1.00
4050;DHT22;2039;50.894;6.888;2023-03-14T08:24:57;12.00;1.00
4050;DHT22;2039;50.894;6.888;2023-03-14T08:27:25;12.20;1.00
4050;DHT22;2039;50.894;6.888;2023-03-14T08:29:54;12.20;1.00
4050;DHT22;2039;50.894;6.888;2023-03-14T08:32:25;12.30;99.90
4050;DHT22;2039;50.894;6.888;2023-03-14T08:34:56;12.40;99.90
4050;DHT22;2039;50.894;6.888;2023-03-14T08:37:22;12.30;99.90
4050;DHT22;2039;50.894;6.888;2023-03-14T08:39:59;12.30;99.90
4050;DHT22;2039;50.894;6.888;2023-03-14T08:42:30;12.30;99.90
4050;DHT22;2039;50.894;6.888;2023-03-14T08:45:04;12.30;99.90
4050;DHT22;2039;50.894;6.888;2023-03-14T08:47:30;12.30;99.90
4050;DHT22;2039;50.894;6.888;2023-03-14T08:50:02;12.40;99.90
4050;DHT22;2039;50.894;6.888;2023-03-14T08:52:30;12.40;99.90
4050;DHT22;2039;50.894;6.888;2023-03-14T08:54:56;12.40;99.90
4050;DHT22;2039;50.894;6.888;2023-03-14T08:57:22;12.30;99.90
4050;DHT22;2039;50.894;6.888;2023-03-14T08:59:56;12.30;99.90
4050;DHT22;2039;50.894;6.888;2023-03-14T09:02:25;12.30;99.90
4050;DHT22;2039;50.894;6.888;2023-03-14T09:04:51;12.20;99.90
4050;DHT22;2039;50.894;6.888;2023-03-14T09:07:17;12.10;99.90
4050;DHT22;2039;50.894;6.888;2023-03-14T09:09:43;12.10;1.00
4050;DHT22;2039;50.894;6.888;2023-03-14T09:12:09;12.10;1.00
4050;DHT22;2039;50.894;6.888;2023-03-14T09:14:35;11.90;1.00
4050;DHT22;2039;50.894;6.888;2023-03-14T09:17:04;12.00;1.00
4050;DHT22;2039;50.894;6.888;2023-03-14T09:19:32;12.00;60.90
4050;DHT22;2039;50.894;6.888;2023-03-14T09:21:58;12.00;99.90
4050;DHT22;2039;50.894;6.888;2023-03-14T09:24:24;11.90;99.90
4050;DHT22;2039;50.894;6.888;2023-03-14T09:26:55;11.80;99.90
4050;DHT22;2039;50.894;6.888;2023-03-14T09:29:39;11.80;1.00
4050;DHT22;2039;50.894;6.888;2023-03-14T09:32:07;11.90;99.90
4050;DHT22;2039;50.894;6.888;2023-03-14T09:34:33;11.70;99.90
4050;DHT22;2039;50.894;6.888;2023-03-14T09:37:00;11.70;1.00
4050;DHT22;2039;50.894;6.888;2023-03-14T09:39:25;11.60;1.00
4050;DHT22;2039;50.894;6.888;2023-03-14T09:41:52;11.10;99.90
4050;DHT22;2039;50.894;6.888;2023-03-14T09:44:38;10.50;18.00
4050;DHT22;2039;50.894;6.888;2023-03-14T09:47:12;10.20;99.90
4050;DHT22;2039;50.894;6.888;2023-03-14T09:49:42;10.00;49.40
4050;DHT22;2039;50.894;6.888;2023-03-14T09:54:56;9.90;99.90
4050;DHT22;2039;50.894;6.888;2023-03-14T09:57:26;9.90;1.00
4050;DHT22;2039;50.894;6.888;2023-03-14T09:59:54;9.90;1.00
4050;DHT22;2039;50.894;6.888;2023-03-14T10:02:23;9.70;99.90
4050;DHT22;2039;50.894;6.888;2023-03-14T10:04:51;9.60;1.00
4050;DHT22;2039;50.894;6.888;2023-03-14T10:07:21;9.60;96.00
4050;DHT22;2039;50.894;6.888;2023-03-14T10:09:50;9.50;1.00
4050;DHT22;2039;50.894;6.888;2023-03-14T10:12:18;9.50;85.20
4050;DHT22;2039;50.894;6.888;2023-03-14T10:14:49;9.50;99.90
4050;DHT22;2039;50.894;6.888;2023-03-14T10:17:17;9.50;1.00
4050;DHT22;2039;50.894;6.888;2023-03-14T10:19:58;9.40;99.90
4050;DHT22;2039;50.894;6.888;2023-03-14T10:22:27;9.30;33.50
4050;DHT22;2039;50.894;6.888;2023-03-14T10:25:04;9.30;99.90
4050;DHT22;2039;50.894;6.888;2023-03-14T10:27:35;9.20;99.90
4050;DHT22;2039;50.894;6.888;2023-03-14T10:30:06;9.20;99.90
4050;DHT22;2039;50.894;6.888;2023-03-14T10:32:38;9.10;52.70
4050;DHT22;2039;50.894;6.888;2023-03-14T10:37:32;9.10;99.90
4050;DHT22;2039;50.894;6.888;2023-03-14T10:40:00;9.20;1.00
4050;DHT22;2039;50.894;6.888;2023-03-14T10:42:40;9.20;1.00
4050;DHT22;2039;50.894;6.888;2023-03-14T10:45:39;9.20;1.00
4050;DHT22;2039;50.894;6.888;2023-03-14T10:48:21;9.20;1.00
4050;DHT22;2039;50.894;6.888;2023-03-14T10:56:25;9.10;98.40
4050;DHT22;2039;50.894;6.888;2023-03-14T10:58:53;9.10;99.90
4050;DHT22;2039;50.894;6.888;2023-03-14T11:04:23;9.10;99.90
4050;DHT22;2039;50.894;6.888;2023-03-14T11:06:59;9.10;99.90
4050;DHT22;2039;50.894;6.888;2023-03-14T11:12:29;9.20;1.00
4050;DHT22;2039;50.894;6.888;2023-03-14T11:15:08;9.20;1.00
4050;DHT22;2039;50.894;6.888;2023-03-14T11:22:50;9.30;99.90
4050;DHT22;2039;50.894;6.888;2023-03-14T11:25:47;9.30;99.90
4050;DHT22;2039;50.894;6.888;2023-03-14T11:28:36;9.30;1.00
4050;DHT22;2039;50.894;6.888;2023-03-14T11:31:28;9.30;1.00
4050;DHT22;2039;50.894;6.888;2023-03-14T11:36:46;9.70;1.00
4050;DHT22;2039;50.894;6.888;2023-03-14T11:39:18;9.90;99.90
4050;DHT22;2039;50.894;6.888;2023-03-14T11:41:47;10.00;1.00
4050;DHT22;2039;50.894;6.888;2023-03-14T11:44:30;10.10;1.00
4050;DHT22;2039;50.894;6.888;2023-03-14T11:49:47;10.00;99.90
4050;DHT22;2039;50.894;6.888;2023-03-14T11:52:43;9.10;99.90
4050;DHT22;2039;50.894;6.888;2023-03-14T11:55:21;8.40;1.00
4050;DHT22;2039;50.894;6.888;2023-03-14T11:57:50;8.20;1.00
4050;DHT22;2039;50.894;6.888;2023-03-14T12:00:17;8.20;99.90
4050;DHT22;2039;50.894;6.888;2023-03-14T12:03:02;8.20;95.70
4050;DHT22;2039;50.894;6.888;2023-03-14T12:11:15;8.40;1.00
4050;DHT22;2039;50.894;6.888;2023-03-14T12:13:47;8.60;1.00
4050;DHT22;2039;50.894;6.888;2023-03-14T12:18:50;8.90;99.90
4050;DHT22;2039;50.894;6.888;2023-03-14T12:21:16;8.90;1.00
4050;DHT22;2039;50.894;6.888;2023-03-14T12:23:47;9.10;99.90
4050;DHT22;2039;50.894;6.888;2023-03-14T12:26:20;8.90;56.40
4050;DHT22;2039;50.894;6.888;2023-03-14T12:29:14;8.80;1.00
4050;DHT22;2039;50.894;6.888;2023-03-14T12:31:46;8.80;85.30
4050;DHT22;2039;50.894;6.888;2023-03-14T12:42:05;8.70;1.00
4050;DHT22;2039;50.894;6.888;2023-03-14T12:49:42;8.20;99.90
4050;DHT22;2039;50.894;6.888;2023-03-14T12:52:19;8.20;99.90
4050;DHT22;2039;50.894;6.888;2023-03-14T12:58:38;8.00;99.90
4050;DHT22;2039;50.894;6.888;2023-03-14T13:01:05;7.90;99.90
4050;DHT22;2039;50.894;6.888;2023-03-14T13:03:44;8.00;1.00
4050;DHT22;2039;50.894;6.888;2023-03-14T13:06:11;7.90;99.90
4050;DHT22;2039;50.894;6.888;2023-03-14T13:08:40;8.00;99.90
4050;DHT22;2039;50.894;6.888;2023-03-14T13:11:16;8.10;99.90
4050;DHT22;2039;50.894;6.888;2023-03-14T13:13:46;8.10;1.00
4050;DHT22;2039;50.894;6.888;2023-03-14T13:16:19;8.10;1.00
4050;DHT22;2039;50.894;6.888;2023-03-14T13:18:47;7.90;91.20
4050;DHT22;2039;50.894;6.888;2023-03-14T13:21:19;7.80;99.90
4050;DHT22;2039;50.894;6.888;2023-03-14T13:26:45;7.80;99.90
4050;DHT22;2039;50.894;6.888;2023-03-14T13:29:23;7.80;99.90
4050;DHT22;2039;50.894;6.888;2023-03-14T13:31:51;7.90;99.90
4050;DHT22;2039;50.894;6.888;2023-03-14T13:34:18;8.00;30.60
4050;DHT22;2039;50.894;6.888;2023-03-14T13:36:44;8.10;1.00
4050;DHT22;2039;50.894;6.888;2023-03-14T13:39:13;8.30;1.00
4050;DHT22;2039;50.894;6.888;2023-03-14T13:41:46;8.20;99.90
4050;DHT22;2039;50.894;6.888;2023-03-14T13:47:19;7.80;99.90
4050;DHT22;2039;50.894;6.888;2023-03-14T13:49:46;7.50;99.90
4050;DHT22;2039;50.894;6.888;2023-03-14T13:52:35;7.30;99.90
4050;DHT22;2039;50.894;6.888;2023-03-14T13:55:03;7.20;99.90
4050;DHT22;2039;50.894;6.888;2023-03-14T13:57:44;7.20;99.90
4050;DHT22;2039;50.894;6.888;2023-03-14T14:02:46;7.30;99.90
4050;DHT22;2039;50.894;6.888;2023-03-14T14:05:13;7.30;99.90
4050;DHT22;2039;50.894;6.888;2023-03-14T14:07:40;7.40;99.90
4050;DHT22;2039;50.894;6.888;2023-03-14T14:10:11;7.40;99.90
4050;DHT22;2039;50.894;6.888;2023-03-14T14:12:42;7.50;99.90
4050;DHT22;2039;50.894;6.888;2023-03-14T14:15:14;7.60;99.90
4050;DHT22;2039;50.894;6.888;2023-03-14T14:17:45;7.80;99.90
4050;DHT22;2039;50.894;6.888;2023-03-14T14:20:34;7.80;99.90
4050;DHT22;2039;50.894;6.888;2023-03-14T14:23:10;7.80;58.10
4050;DHT22;2039;50.894;6.888;2023-03-14T14:25:36;7.80;90.50
4050;DHT22;2039;50.894;6.888;2023-03-14T14:30:45;8.00;57.80
4050;DHT22;2039;50.894;6.888;2023-03-14T14:35:50;8.00;1.00
4050;DHT22;2039;50.894;6.888;2023-03-14T14:38:17;8.00;14.30
4050;DHT22;2039;50.894;6.888;2023-03-14T14:40:49;8.00;3.00
4050;DHT22;2039;50.894;6.888;2023-03-14T14:43:23;8.00;1.00
4050;DHT22;2039;50.894;6.888;2023-03-14T14:45:53;8.00;1.00
4050;DHT22;2039;50.894;6.888;2023-03-14T14:48:24;8.00;1.00
4050;DHT22;2039;50.894;6.888;2023-03-14T14:50:59;8.00;1.00
4050;DHT22;2039;50.894;6.888;2023-03-14T14:53:45;8.00;1.00
4050;DHT22;2039;50.894;6.888;2023-03-14T14:56:21;8.00;1.00
4050;DHT22;2039;50.894;6.888;2023-03-14T14:58:55;8.10;1.00
4050;DHT22;2039;50.894;6.888;2023-03-14T15:01:25;8.20;1.00
4050;DHT22;2039;50.894;6.888;2023-03-14T15:03:56;8.10;1.00
4050;DHT22;2039;50.894;6.888;2023-03-14T15:06:24;8.30;1.00
4050;DHT22;2039;50.894;6.888;2023-03-14T15:08:53;8.30;1.00
4050;DHT22;2039;50.894;6.888;2023-03-14T15:11:21;8.40;1.00
4050;DHT22;2039;50.894;6.888;2023-03-14T15:13:48;8.30;1.00
4050;DHT22;2039;50.894;6.888;2023-03-14T15:16:17;8.30;1.00
4050;DHT22;2039;50.894;6.888;2023-03-14T15:18:43;8.30;1.00
4050;DHT22;2039;50.894;6.888;2023-03-14T15:21:10;8.30;1.00
4050;DHT22;2039;50.894;6.888;2023-03-14T15:23:36;8.20;1.00
4050;DHT22;2039;50.894;6.888;2023-03-14T15:26:04;8.10;1.00
4050;DHT22;2039;50.894;6.888;2023-03-14T15:28:30;8.30;1.00
4050;DHT22;2039;50.894;6.888;2023-03-14T15:30:58;8.30;1.00
4050;DHT22;2039;50.894;6.888;2023-03-14T15:33:25;8.40;1.00
4050;DHT22;2039;50.894;6.888;2023-03-14T15:35:51;8.50;1.00
4050;DHT22;2039;50.894;6.888;2023-03-14T15:38:19;8.60;1.00
4050;DHT22;2039;50.894;6.888;2023-03-14T15:40:46;8.60;1.00
4050;DHT22;2039;50.894;6.888;2023-03-14T15:43:15;8.60;1.00
4050;DHT22;2039;50.894;6.888;2023-03-14T15:45:41;8.60;1.00
4050;DHT22;2039;50.894;6.888;2023-03-14T15:48:16;8.60;1.00
4050;DHT22;2039;50.894;6.888;2023-03-14T15:50:42;8.60;1.00
4050;DHT22;2039;50.894;6.888;2023-03-14T15:53:08;8.60;1.00
4050;DHT22;2039;50.894;6.888;2023-03-14T15:55:34;8.50;1.00
4050;DHT22;2039;50.894;6.888;2023-03-14T15:57:59;8.50;1.00
4050;DHT22;2039;50.894;6.888;2023-03-14T16:00:30;8.50;1.00
4050;DHT22;2039;50.894;6.888;2023-03-14T16:02:59;8.30;1.00
4050;DHT22;2039;50.894;6.888;2023-03-14T16:05:24;8.30;1.00
4050;DHT22;2039;50.894;6.888;2023-03-14T16:07:50;8.30;9.50
4050;DHT22;2039;50.894;6.888;2023-03-14T16:10:16;8.30;22.00
4050;DHT22;2039;50.894;6.888;2023-03-14T16:12:42;8.30;19.70
4050;DHT22;2039;50.894;6.888;2023-03-14T16:15:09;8.30;20.90
4050;DHT22;2039;50.894;6.888;2023-03-14T16:17:35;8.20;5.00
4050;DHT22;2039;50.894;6.888;2023-03-14T16:20:03;8.20;14.00
4050;DHT22;2039;50.894;6.888;2023-03-14T16:22:29;8.20;15.80
4050;DHT22;2039;50.894;6.888;2023-03-14T16:25:03;8.30;12.00
4050;DHT22;2039;50.894;6.888;2023-03-14T16:27:29;8.20;1.00
4050;DHT22;2039;50.894;6.888;2023-03-14T16:29:56;8.10;1.00
4050;DHT22;2039;50.894;6.888;2023-03-14T16:32:22;8.10;1.00
4050;DHT22;2039;50.894;6.888;2023-03-14T16:34:48;8.00;1.00
4050;DHT22;2039;50.894;6.888;2023-03-14T16:37:13;8.00;1.00
4050;DHT22;2039;50.894;6.888;2023-03-14T16:39:39;8.00;1.00
4050;DHT22;2039;50.894;6.888;2023-03-14T16:42:05;8.00;1.00
4050;DHT22;2039;50.894;6.888;2023-03-14T16:44:30;8.00;1.00
4050;DHT22;2039;50.894;6.888;2023-03-14T16:46:56;8.00;1.00
4050;DHT22;2039;50.894;6.888;2023-03-14T16:49:22;8.00;1.00
4050;DHT22;2039;50.894;6.888;2023-03-14T16:51:47;8.00;1.00
4050;DHT22;2039;50.894;6.888;2023-03-14T16:54:13;7.90;1.00
4050;DHT22;2039;50.894;6.888;2023-03-14T16:56:39;7.90;1.00
4050;DHT22;2039;50.894;6.888;2023-03-14T16:59:04;7.80;1.00
4050;DHT22;2039;50.894;6.888;2023-03-14T17:01:31;7.60;1.00
4050;DHT22;2039;50.894;6.888;2023-03-14T17:03:57;7.60;1.00
4050;DHT22;2039;50.894;6.888;2023-03-14T17:06:25;7.50;1.00
4050;DHT22;2039;50.894;6.888;2023-03-14T17:08:52;7.40;1.00
4050;DHT22;2039;50.894;6.888;2023-03-14T17:11:18;7.40;1.00
4050;DHT22;2039;50.894;6.888;2023-03-14T17:13:44;7.50;1.00
4050;DHT22;2039;50.894;6.888;2023-03-14T17:16:10;7.50;1.00
4050;DHT22;2039;50.894;6.888;2023-03-14T17:18:36;7.40;1.00
4050;DHT22;2039;50.894;6.888;2023-03-14T17:21:02;7.40;1.00
4050;DHT22;2039;50.894;6.888;2023-03-14T17:23:30;7.30;1.00
4050;DHT22;2039;50.894;6.888;2023-03-14T17:25:56;7.30;1.00
4050;DHT22;2039;50.894;6.888;2023-03-14T17:28:23;7.20;1.00
4050;DHT22;2039;50.894;6.888;2023-03-14T17:30:50;7.20;1.00
4050;DHT22;2039;50.894;6.888;2023-03-14T17:33:16;7.20;1.00
4050;DHT22;2039;50.894;6.888;2023-03-14T17:35:42;7.10;1.00
4050;DHT22;2039;50.894;6.888;2023-03-14T17:38:08;7.10;1.00
4050;DHT22;2039;50.894;6.888;2023-03-14T17:43:24;7.10;1.00
4050;DHT22;2039;50.894;6.888;2023-03-14T17:45:59;7.00;1.00
4050;DHT22;2039;50.894;6.888;2023-03-14T17:48:26;7.10;1.00
4050;DHT22;2039;50.894;6.888;2023-03-14T17:50:51;7.10;1.00
4050;DHT22;2039;50.894;6.888;2023-03-14T17:53:17;7.00;1.00
4050;DHT22;2039;50.894;6.888;2023-03-14T17:55:43;7.00;1.00
4050;DHT22;2039;50.894;6.888;2023-03-14T17:58:09;7.00;1.00
4050;DHT22;2039;50.894;6.888;2023-03-14T18:00:37;6.90;1.00
4050;DHT22;2039;50.894;6.888;2023-03-14T18:03:03;6.90;1.00
4050;DHT22;2039;50.894;6.888;2023-03-14T18:05:29;6.90;1.00
4050;DHT22;2039;50.894;6.888;2023-03-14T18:07:57;6.90;1.00
4050;DHT22;2039;50.894;6.888;2023-03-14T18:10:23;6.90;1.00
4050;DHT22;2039;50.894;6.888;2023-03-14T18:12:51;6.90;1.00
4050;DHT22;2039;50.894;6.888;2023-03-14T18:15:17;6.90;1.00
4050;DHT22;2039;50.894;6.888;2023-03-14T18:17:45;6.80;1.00
4050;DHT22;2039;50.894;6.888;2023-03-14T18:20:11;6.90;1.00
4050;DHT22;2039;50.894;6.888;2023-03-14T18:22:40;6.80;1.00
4050;DHT22;2039;50.894;6.888;2023-03-14T18:43:32;6.60;1.00
4050;DHT22;2039;50.894;6.888;2023-03-14T18:53:31;6.50;1.00
4050;DHT22;2039;50.894;6.888;2023-03-14T18:59:39;6.40;1.00
4050;DHT22;2039;50.894;6.888;2023-03-14T19:02:45;6.30;1.00
4050;DHT22;2039;50.894;6.888;2023-03-14T19:16:28;6.30;1.00
4050;DHT22;2039;50.894;6.888;2023-03-14T19:29:35;6.20;1.00
4050;DHT22;2039;50.894;6.888;2023-03-14T19:32:30;6.10;1.00
4050;DHT22;2039;50.894;6.888;2023-03-14T19:38:43;6.10;1.00
4050;DHT22;2039;50.894;6.888;2023-03-14T19:41:52;6.10;1.00
4050;DHT22;2039;50.894;6.888;2023-03-14T19:45:22;5.90;1.00
4050;DHT22;2039;50.894;6.888;2023-03-14T19:52:10;6.00;1.00
4050;DHT22;2039;50.894;6.888;2023-03-14T19:55:47;6.00;1.00
4050;DHT22;2039;50.894;6.888;2023-03-14T19:58:55;6.00;1.00
4050;DHT22;2039;50.894;6.888;2023-03-14T20:22:55;6.00;1.00
4050;DHT22;2039;50.894;6.888;2023-03-14T20:42:42;5.90;1.00
4050;DHT22;2039;50.894;6.888;2023-03-14T20:52:21;5.90;1.00
4050;DHT22;2039;50.894;6.888;2023-03-14T20:55:25;5.80;1.00
4050;DHT22;2039;50.894;6.888;2023-03-14T20:59:24;5.80;1.00
4050;DHT22;2039;50.894;6.888;2023-03-14T21:20:08;5.30;1.00
4050;DHT22;2039;50.894;6.888;2023-03-14T21:23:01;5.30;1.00
4050;DHT22;2039;50.894;6.888;2023-03-14T21:32:37;5.20;1.00
4050;DHT22;2039;50.894;6.888;2023-03-14T21:45:36;4.90;1.00
4050;DHT22;2039;50.894;6.888;2023-03-14T21:48:27;4.90;1.00
4050;DHT22;2039;50.894;6.888;2023-03-14T21:51:56;4.90;1.00
4050;DHT22;2039;50.894;6.888;2023-03-14T21:55:03;4.80;1.00
4050;DHT22;2039;50.894;6.888;2023-03-14T22:01:35;4.80;1.00
4050;DHT22;2039;50.894;6.888;2023-03-14T22:04:31;4.70;1.00
4050;DHT22;2039;50.894;6.888;2023-03-14T22:07:22;4.70;1.00